KHLX

Twin County Airport

Galax Hillsville, Virginia, USA
METAR KHLX 152115Z AUTO 00000KT 1 1/2SM BR OVC003 01/00 A2985 RMK AO2 T00050000
Observed Flight Rules
Nov-15 @ 21:15 UTC (21 minutes ago) Instrument Flight Rules
Visibility Clouds Conditions
1 1/2 miles
  • Overcast at 300' AGL
  • Mist
Temperatures Readings
Current 1°C / 34°F
Dewpoint 0°C / 32°F
Humidity 93%
Altimeter 29.85" Hg
Pressure 1011 hPa
Elevation 834
METAR KHLX 152115Z AUTO 00000KT 1 1/2SM BR OVC003 01/00 A2985 RMK AO2 T00050000
Observed Flight Rules
Nov-15 @ 21:15 UTC
(21 minutes ago)
LIFR
Clouds
  • Overcast at 300' AGL
Conditions
  • Mist
Temperature Dewpoint
1°C / 34°F 0°C / 32°F
Humidity Altimeter Pressure
93% 29.85" Hg 1011 hPa